Time;durP1;ratioP1;P1;durP2;ratioP2;P2;SDS_P1;SDS_P2;PMS_P1;PMS_P2;Temp;Humidity;BMP_temperature;BMP_pressure;BME280_temperature;BME280_humidity;BME280_pressure;Samples;Min_cycle;Max_cycle;Signal;HPM_P1;HPM_P2
2022/03/23 00:00:05;;;;;;;59.40;40.22;;;;;;;7.20;100.00;103191.09;6221869;23;20024;-79
2022/03/23 00:02:39;;;;;;;58.80;40.30;;;;;;;7.21;100.00;103200.75;6230987;23;20498;-78
2022/03/23 00:05:07;;;;;;;58.97;38.97;;;;;;;7.22;100.00;103202.56;6221452;23;20458;-79
2022/03/23 00:07:36;;;;;;;57.40;40.53;;;;;;;7.23;100.00;103200.84;6219882;23;20146;-79
2022/03/23 00:10:05;;;;;;;56.63;39.28;;;;;;;7.23;100.00;103207.00;6207919;23;20020;-79
2022/03/23 00:12:34;;;;;;;56.10;39.85;;;;;;;7.22;100.00;103199.03;6182611;23;20233;-79
2022/03/23 00:15:03;;;;;;;58.30;41.13;;;;;;;7.18;100.00;103199.69;6222533;23;20346;-79
2022/03/23 00:17:37;;;;;;;58.65;41.35;;;;;;;7.11;100.00;103193.22;6209422;23;20158;-79
2022/03/23 00:20:07;;;;;;;60.38;38.72;;;;;;;7.08;100.00;103200.00;6184874;23;20024;-79
2022/03/23 00:22:35;;;;;;;54.83;40.33;;;;;;;7.06;100.00;103206.91;6186240;23;20016;-79
2022/03/23 00:25:05;;;;;;;58.97;38.97;;;;;;;7.02;100.00;103201.47;6211655;23;20016;-79
2022/03/23 00:27:33;;;;;;;51.95;39.17;;;;;;;6.99;100.00;103200.38;6186615;23;20043;-79
2022/03/23 00:30:03;;;;;;;62.47;39.70;;;;;;;6.96;100.00;103214.25;6200407;23;20032;-79
2022/03/23 00:32:32;;;;;;;57.55;40.60;;;;;;;6.92;100.00;103209.66;6186739;23;20476;-79
2022/03/23 00:35:02;;;;;;;57.17;40.42;;;;;;;6.90;100.00;103206.03;6219858;23;20355;-78
2022/03/23 00:37:35;;;;;;;59.00;41.40;;;;;;;6.87;100.00;103202.34;6196243;23;20023;-79
2022/03/23 00:40:06;;;;;;;56.17;40.67;;;;;;;6.82;100.00;103196.81;6176052;23;20024;-79
2022/03/23 00:42:35;;;;;;;64.38;42.42;;;;;;;6.77;100.00;103201.81;6184980;23;20233;-79
2022/03/23 00:45:06;;;;;;;53.70;39.10;;;;;;;6.73;100.00;103207.72;6250648;23;20027;-79
2022/03/23 00:47:35;;;;;;;62.42;42.63;;;;;;;6.70;100.00;103201.41;6197175;23;20525;-79
2022/03/23 00:50:04;;;;;;;60.78;41.53;;;;;;;6.67;100.00;103196.84;6195589;23;20019;-79
2022/03/23 00:52:37;;;;;;;57.22;40.90;;;;;;;6.66;100.00;103202.03;6243177;23;20016;-79
2022/03/23 00:55:09;;;;;;;61.45;40.63;;;;;;;6.62;100.00;103200.97;6197993;23;20020;-79
2022/03/23 00:57:38;;;;;;;57.35;41.35;;;;;;;6.58;100.00;103199.88;6179498;23;20024;-79
2022/03/23 01:00:12;;;;;;;60.10;41.75;;;;;;;6.54;100.00;103205.75;6220611;23;20020;-79
2022/03/23 01:02:41;;;;;;;59.60;42.53;;;;;;;6.51;100.00;103204.69;6187634;23;20313;-79
2022/03/23 01:05:12;;;;;;;59.42;41.20;;;;;;;6.49;100.00;103199.34;6210306;23;20031;-79
2022/03/23 01:07:41;;;;;;;61.90;43.22;;;;;;;6.44;100.00;103199.06;6195626;23;20133;-79
2022/03/23 01:10:13;;;;;;;62.67;41.25;;;;;;;6.41;100.00;103204.16;6247036;23;20039;-79
2022/03/23 01:12:44;;;;;;;61.33;43.08;;;;;;;6.37;100.00;103207.41;6184852;23;20059;-79
2022/03/23 01:15:17;;;;;;;63.15;42.67;;;;;;;6.33;100.00;103213.28;6209793;23;20067;-79
2022/03/23 01:17:46;;;;;;;57.63;42.50;;;;;;;6.29;100.00;103199.91;6212940;23;20319;-79
2022/03/23 01:20:16;;;;;;;64.03;44.78;;;;;;;6.26;100.00;103198.03;6234708;23;20016;-79
2022/03/23 01:22:45;;;;;;;63.22;43.65;;;;;;;6.27;100.00;103198.91;6239248;23;20012;-78
2022/03/23 01:25:18;;;;;;;66.13;43.75;;;;;;;6.25;100.00;103197.09;6220447;23;20027;-79
2022/03/23 01:27:46;;;;;;;63.67;42.83;;;;;;;6.21;100.00;103195.13;6235230;23;20482;-78
2022/03/23 01:30:16;;;;;;;60.10;41.63;;;;;;;6.18;100.00;103202.81;6195725;23;20321;-77
2022/03/23 01:32:45;;;;;;;59.67;43.58;;;;;;;6.14;100.00;103192.94;6221960;23;20453;-79
2022/03/23 01:35:14;;;;;;;64.47;42.95;;;;;;;6.12;100.00;103191.94;6192338;23;20023;-79
2022/03/23 01:37:43;;;;;;;64.60;43.28;;;;;;;6.08;100.00;103187.34;6246919;23;20190;-79
2022/03/23 01:40:12;;;;;;;59.63;42.33;;;;;;;6.05;100.00;103189.81;6186775;23;20042;-79
2022/03/23 01:42:43;;;;;;;64.00;42.35;;;;;;;6.03;100.00;103186.16;6190380;23;20027;-79
2022/03/23 01:45:12;;;;;;;62.50;44.00;;;;;;;5.99;100.00;103189.41;6234092;23;20020;-77
2022/03/23 01:47:44;;;;;;;61.47;43.08;;;;;;;5.96;100.00;103186.66;6186691;23;20450;-79
2022/03/23 01:50:13;;;;;;;59.50;41.67;;;;;;;5.93;100.00;103191.66;6244470;23;20035;-77
2022/03/23 01:52:42;;;;;;;68.55;41.72;;;;;;;5.90;100.00;103186.22;6246616;23;20047;-78
2022/03/23 01:55:17;;;;;;;63.60;42.33;;;;;;;5.89;100.00;103185.31;6161587;23;20012;-78
2022/03/23 01:57:49;;;;;;;62.42;42.72;;;;;;;5.86;100.00;103186.06;6223200;23;20474;-78
2022/03/23 02:00:20;;;;;;;60.78;42.15;;;;;;;5.84;100.00;103178.91;6196378;23;20024;-79
2022/03/23 02:02:49;;;;;;;65.88;43.50;;;;;;;5.82;100.00;103175.28;6210406;23;20031;-79
2022/03/23 02:05:20;;;;;;;62.33;42.40;;;;;;;5.82;100.00;103172.69;6141103;23;20031;-79
2022/03/23 02:07:55;;;;;;;69.70;45.38;;;;;;;5.83;100.00;103174.50;6186823;23;20028;-79
2022/03/23 02:10:24;;;;;;;64.20;45.92;;;;;;;5.79;100.00;103170.78;6246021;23;20532;-79
2022/03/23 02:13:01;;;;;;;66.72;45.15;;;;;;;5.77;100.00;103168.91;6167573;23;20024;-79
2022/03/23 02:15:31;;;;;;;64.90;43.72;;;;;;;5.72;100.00;103168.63;6235300;23;20241;-79
2022/03/23 02:17:59;;;;;;;63.13;43.08;;;;;;;5.71;100.00;103171.13;6200906;23;20012;-79
2022/03/23 02:20:28;;;;;;;61.65;42.55;;;;;;;5.67;100.00;103162.19;6221789;23;20023;-79
2022/03/23 02:22:56;;;;;;;62.88;41.38;;;;;;;5.64;100.00;103169.88;6239546;23;20016;-79
2022/03/23 02:25:27;;;;;;;65.45;45.83;;;;;;;5.59;100.00;103164.34;6220976;23;20023;-79
2022/03/23 02:27:56;;;;;;;;;;;;;;;5.55;100.00;103167.59;6218015;23;20031;-79
2022/03/23 02:30:24;;;;;;;66.00;42.53;;;;;;;5.52;100.00;103170.03;6234641;23;19946;-79
2022/03/23 02:32:53;;;;;;;62.92;43.17;;;;;;;5.49;100.00;103164.63;6225379;23;20020;-79
2022/03/23 02:35:25;;;;;;;61.95;43.03;;;;;;;5.46;100.00;103162.72;6237361;23;20012;-79
2022/03/23 02:37:53;;;;;;;64.80;43.35;;;;;;;5.45;100.00;103162.63;6222379;23;20019;-79
2022/03/23 02:40:21;;;;;;;63.65;42.78;;;;;;;5.42;100.00;103157.19;6197236;23;20007;-79
2022/03/23 02:42:50;;;;;;;66.70;44.42;;;;;;;5.39;100.00;103163.16;6225533;23;20043;-79
2022/03/23 02:45:18;;;;;;;71.30;41.03;;;;;;;5.37;100.00;103164.78;6175318;23;20023;-79
2022/03/23 02:47:47;;;;;;;56.75;39.08;;;;;;;5.34;100.00;103161.97;6251882;23;20442;-80
2022/03/23 02:50:15;;;;;;;60.40;43.13;;;;;;;5.33;100.00;103162.78;6187991;23;20016;-79
2022/03/23 03:01:52;;;;;;;60.35;41.30;;;;;;;5.32;100.00;103160.97;6251089;23;20020;-79
2022/03/23 03:04:14;;;;;;;64.32;42.05;;;;;;;5.25;100.00;103162.31;6208586;23;20075;-79
2022/03/23 03:06:42;;;;;;;61.08;40.67;;;;;;;5.25;100.00;103164.00;6137574;23;20035;-79
2022/03/23 03:09:15;;;;;;;63.17;42.67;;;;;;;5.22;100.00;103161.22;6212120;23;20020;-79
2022/03/23 03:11:44;;;;;;;62.17;44.08;;;;;;;5.20;100.00;103168.06;6190685;23;20079;-79
2022/03/23 03:14:13;;;;;;;60.78;41.80;;;;;;;5.17;100.00;103158.28;6212722;23;20362;-79
2022/03/23 03:16:42;;;;;;;60.85;40.33;;;;;;;5.16;100.00;103161.72;6236089;23;20238;-79
2022/03/23 03:19:11;;;;;;;59.15;42.67;;;;;;;5.14;100.00;103157.19;6223389;23;20022;-79
2022/03/23 03:21:43;;;;;;;61.35;42.65;;;;;;;5.12;100.00;103164.03;6223710;23;20387;-79
2022/03/23 03:24:12;;;;;;;63.80;42.13;;;;;;;5.12;100.00;103169.28;6222045;23;20012;-79
2022/03/23 03:26:41;;;;;;;62.85;43.17;;;;;;;5.10;100.00;103163.03;6246381;23;20023;-80
2022/03/23 03:29:09;;;;;;;64.18;43.22;;;;;;;5.07;100.00;103166.38;6223178;23;20481;-79
2022/03/23 03:31:38;;;;;;;60.80;43.60;;;;;;;5.06;100.00;103167.16;6234880;23;20263;-79
2022/03/23 03:34:08;;;;;;;60.10;42.15;;;;;;;5.04;100.00;103167.06;6248936;23;20032;-79
2022/03/23 03:36:36;;;;;;;63.47;42.42;;;;;;;5.02;100.00;103163.47;6248904;23;20194;-79
2022/03/23 03:39:07;;;;;;;67.63;44.10;;;;;;;4.99;100.00;103173.75;6189481;23;20020;-79
2022/03/23 03:41:36;;;;;;;60.58;40.72;;;;;;;4.98;100.00;103166.69;6245510;23;20138;-79
2022/03/23 03:44:05;;;;;;;58.00;41.38;;;;;;;4.97;100.00;103171.81;6185035;23;20328;-79
2022/03/23 03:46:36;;;;;;;63.90;42.53;;;;;;;4.94;100.00;103176.88;6157387;23;20039;-79
2022/03/23 03:49:05;;;;;;;59.60;41.08;;;;;;;4.92;100.00;103176.75;6196531;23;20336;-79
2022/03/23 03:51:34;;;;;;;60.58;41.42;;;;;;;4.90;100.00;103178.38;6220897;23;20241;-79
2022/03/23 03:54:03;;;;;;;59.70;41.33;;;;;;;4.90;100.00;103181.00;6187775;23;20017;-79
2022/03/23 03:56:32;;;;;;;64.55;40.80;;;;;;;4.87;100.00;103172.94;6216998;23;20024;-79
2022/03/23 03:59:00;;;;;;;61.53;40.90;;;;;;;4.84;100.00;103178.00;6238413;23;20462;-79
2022/03/23 04:01:29;;;;;;;56.65;37.85;;;;;;;4.82;100.00;103182.19;6218832;23;20203;-79
2022/03/23 04:03:58;;;;;;;56.13;38.72;;;;;;;4.79;100.00;103182.91;6209616;23;20028;-80
2022/03/23 04:06:26;;;;;;;56.60;39.92;;;;;;;4.77;100.00;103174.06;6192068;23;20206;-80
2022/03/23 04:08:54;;;;;;;58.08;38.92;;;;;;;4.75;100.00;103177.41;6220965;23;20345;-80
2022/03/23 04:11:23;;;;;;;53.88;38.42;;;;;;;4.73;100.00;103181.63;6190150;23;20316;-79
2022/03/23 04:13:54;;;;;;;57.80;39.45;;;;;;;4.70;100.00;103184.94;6183682;23;20025;-80
2022/03/23 04:16:23;;;;;;;48.83;36.38;;;;;;;4.67;100.00;103180.41;6202618;23;20032;-79
2022/03/23 04:18:51;;;;;;;58.80;37.25;;;;;;;4.67;100.00;103182.13;6184988;23;20489;-79
2022/03/23 04:21:20;;;;;;;54.15;36.47;;;;;;;4.66;100.00;103183.81;6193433;23;20023;-80
2022/03/23 04:23:48;;;;;;;56.15;38.05;;;;;;;4.63;100.00;103186.25;6221372;23;20020;-80
2022/03/23 04:26:17;;;;;;;53.17;37.13;;;;;;;4.63;100.00;103187.94;6244064;23;20027;-79
2022/03/23 04:28:45;;;;;;;52.72;37.40;;;;;;;4.62;100.00;103187.03;6218188;23;20020;-79
2022/03/23 04:31:14;;;;;;;55.17;35.88;;;;;;;4.60;100.00;103188.66;6195375;23;20016;-79
2022/03/23 04:33:43;;;;;;;52.67;36.00;;;;;;;4.60;100.00;103193.88;6208586;23;20024;-79
2022/03/23 04:36:13;;;;;;;52.00;35.90;;;;;;;4.59;100.00;103185.94;6197040;23;20046;-79
2022/03/23 04:38:41;;;;;;;60.45;40.30;;;;;;;4.57;100.00;103188.44;6195976;23;20040;-79
2022/03/23 04:41:10;;;;;;;58.35;39.72;;;;;;;4.54;100.00;103188.25;6196446;23;20469;-79
2022/03/23 04:43:39;;;;;;;58.00;40.60;;;;;;;4.53;100.00;103196.00;6219288;23;20021;-79
2022/03/23 04:46:08;;;;;;;60.03;39.78;;;;;;;4.51;100.00;103187.16;6167118;23;19996;-79
2022/03/23 04:48:37;;;;;;;59.60;39.00;;;;;;;4.49;100.00;103200.09;6218656;23;20021;-79
2022/03/23 04:51:07;;;;;;;57.45;38.78;;;;;;;4.47;100.00;103186.03;6158908;23;20017;-79
2022/03/23 04:53:36;;;;;;;64.63;42.70;;;;;;;4.45;100.00;103195.50;6242631;23;20024;-79
2022/03/23 04:56:05;;;;;;;57.38;40.50;;;;;;;4.43;100.00;103194.50;6186019;23;20021;-79
2022/03/23 04:58:34;;;;;;;58.47;40.03;;;;;;;4.42;100.00;103192.66;6209168;23;20027;-79
2022/03/23 05:01:03;;;;;;;54.85;37.90;;;;;;;4.41;100.00;103197.00;6241573;23;20019;-79
2022/03/23 05:03:32;;;;;;;56.90;38.58;;;;;;;4.41;100.00;103190.88;6165473;23;20032;-79
2022/03/23 05:06:00;;;;;;;55.25;37.05;;;;;;;4.39;100.00;103193.38;6233680;23;20021;-79
2022/03/23 05:08:29;;;;;;;61.38;40.03;;;;;;;4.39;100.00;103192.47;6156559;23;20620;-80
2022/03/23 05:10:58;;;;;;;52.28;38.40;;;;;;;4.38;100.00;103195.88;6217993;23;20013;-80
2022/03/23 05:13:27;;;;;;;54.53;36.50;;;;;;;4.35;100.00;103196.59;6238716;23;20017;-80
2022/03/23 05:15:55;;;;;;;56.08;38.45;;;;;;;4.34;100.00;103200.00;6238874;23;20355;-80
2022/03/23 05:18:24;;;;;;;55.17;36.72;;;;;;;4.34;100.00;103189.56;6211676;23;20390;-78
2022/03/23 05:20:53;;;;;;;55.08;37.03;;;;;;;4.34;100.00;103196.47;6148372;23;20020;-78
2022/03/23 05:23:21;;;;;;;57.70;39.05;;;;;;;4.31;100.00;103202.41;6211117;23;20044;-78
2022/03/23 05:25:50;;;;;;;54.10;36.30;;;;;;;4.30;100.00;103206.72;6211300;23;20024;-78
2022/03/23 05:28:18;;;;;;;54.20;37.33;;;;;;;4.28;100.00;103205.72;6209203;23;20465;-78
2022/03/23 05:30:47;;;;;;;53.92;37.20;;;;;;;4.28;100.00;103204.81;6156276;23;20017;-79
2022/03/23 05:33:18;;;;;;;51.22;37.05;;;;;;;4.27;100.00;103206.53;6217137;23;20028;-78
2022/03/23 05:35:47;;;;;;;57.17;36.92;;;;;;;4.27;100.00;103203.00;6245638;23;20017;-80
2022/03/23 05:38:15;;;;;;;61.72;37.85;;;;;;;4.26;100.00;103195.97;6144213;23;20051;-80
2022/03/23 05:40:43;;;;;;;50.83;36.42;;;;;;;4.26;100.00;103204.69;6219310;23;20438;-80
2022/03/23 05:43:12;;;;;;;56.88;37.55;;;;;;;4.26;100.00;103196.88;6218078;23;20339;-80
2022/03/23 05:45:40;;;;;;;55.17;36.50;;;;;;;4.27;100.00;103205.59;6183241;23;20495;-80
2022/03/23 05:48:09;;;;;;;56.40;35.80;;;;;;;4.28;100.00;103213.53;6218962;23;20025;-80
2022/03/23 05:50:38;;;;;;;54.17;36.28;;;;;;;4.30;100.00;103209.31;6170934;23;20321;-80
2022/03/23 05:53:08;;;;;;;55.55;36.25;;;;;;;4.33;100.00;103216.47;6175920;23;20016;-81
2022/03/23 05:55:36;;;;;;;55.65;35.83;;;;;;;4.34;100.00;103209.53;6218538;23;20016;-80
2022/03/23 05:58:05;;;;;;;59.33;37.92;;;;;;;4.37;100.00;103212.38;6221744;23;20020;-78
2022/03/23 06:00:34;;;;;;;56.28;36.50;;;;;;;4.39;100.00;103223.81;6208340;23;20016;-78
2022/03/23 06:03:02;;;;;;;54.47;36.50;;;;;;;4.42;100.00;103221.38;6178016;23;20021;-78
2022/03/23 06:05:31;;;;;;;55.45;37.33;;;;;;;4.45;100.00;103221.59;6211598;23;20021;-78
2022/03/23 06:08:00;;;;;;;53.17;37.50;;;;;;;4.47;100.00;103220.88;6204133;23;20017;-78
2022/03/23 06:10:28;;;;;;;54.47;37.33;;;;;;;4.52;100.00;103226.44;6221196;23;20022;-78
2022/03/23 06:12:58;;;;;;;58.08;37.92;;;;;;;4.56;100.00;103218.00;6207260;23;20108;-80
2022/03/23 06:15:27;;;;;;;55.50;37.08;;;;;;;4.59;100.00;103217.28;6209338;23;20031;-77
2022/03/23 06:17:55;;;;;;;59.13;40.13;;;;;;;4.63;100.00;103221.88;6187676;23;20122;-78
2022/03/23 06:20:29;;;;;;;50.08;35.83;;;;;;;4.69;100.00;103230.16;6221955;23;20324;-80
2022/03/23 06:22:57;;;;;;;53.38;36.90;;;;;;;4.76;100.00;103221.00;6206221;23;20020;-77
2022/03/23 06:25:26;;;;;;;54.25;37.60;;;;;;;4.82;100.00;103226.59;6208181;23;20016;-81
2022/03/23 06:27:54;;;;;;;53.95;35.47;;;;;;;4.88;100.00;103233.16;6210628;23;20355;-78
2022/03/23 06:30:23;;;;;;;56.83;36.42;;;;;;;4.95;100.00;103237.03;6218198;23;20025;-81
2022/03/23 06:32:52;;;;;;;48.15;33.45;;;;;;;5.02;100.00;103231.41;6215123;23;20019;-78
2022/03/23 06:35:21;;;;;;;53.78;37.33;;;;;;;5.11;100.00;103241.56;6205083;23;20024;-78
2022/03/23 06:37:49;;;;;;;49.55;35.67;;;;;;;5.18;100.00;103241.16;6209561;23;20082;-78
2022/03/23 06:40:19;;;;;;;51.20;36.17;;;;;;;5.25;100.00;103237.19;6149723;23;20027;-81
2022/03/23 06:42:51;;;;;;;50.22;35.92;;;;;;;5.33;100.00;103245.53;6180116;23;20021;-80
2022/03/23 06:45:21;;;;;;;49.33;36.45;;;;;;;5.40;100.00;103240.78;6227100;23;20020;-80
2022/03/23 06:47:50;;;;;;;52.65;36.70;;;;;;;5.48;100.00;103249.09;6178736;23;20353;-80
2022/03/23 06:50:18;;;;;;;50.40;34.80;;;;;;;5.58;100.00;103250.59;6220274;23;20031;-79
2022/03/23 06:52:47;;;;;;;56.30;37.45;;;;;;;5.69;100.00;103251.22;6191727;23;20012;-80
2022/03/23 06:55:16;;;;;;;53.97;37.83;;;;;;;5.79;100.00;103257.13;6234347;23;20027;-81
2022/03/23 06:57:45;;;;;;;48.53;34.38;;;;;;;5.97;100.00;103257.41;6210785;23;20480;-81
2022/03/23 07:00:17;;;;;;;48.45;35.58;;;;;;;6.16;100.00;103251.56;6223370;23;20024;-79
2022/03/23 07:02:47;;;;;;;50.05;35.28;;;;;;;6.48;100.00;103252.53;6220567;23;20016;-79
2022/03/23 07:05:18;;;;;;;52.33;34.70;;;;;;;6.92;100.00;103254.22;6225933;23;20034;-79
2022/03/23 07:10:37;;;;;;;42.25;32.10;;;;;;;7.91;100.00;103259.56;6246759;23;20654;-79
2022/03/23 07:13:05;;;;;;;42.20;31.77;;;;;;;8.38;100.00;103253.25;6228074;23;20023;-78
2022/03/23 07:15:36;;;;;;;42.90;30.90;;;;;;;8.84;100.00;103254.66;6202507;23;20244;-79
2022/03/23 07:18:05;;;;;;;45.72;31.70;;;;;;;9.31;100.00;103245.50;6221635;23;20023;-79
2022/03/23 07:20:35;;;;;;;46.30;30.75;;;;;;;9.73;100.00;103245.66;6230215;23;20019;-79
2022/03/23 07:23:07;;;;;;;47.33;29.80;;;;;;;10.11;100.00;103252.66;6241584;23;20020;-79
2022/03/23 07:25:36;;;;;;;44.55;28.80;;;;;;;10.49;100.00;103252.50;6209351;23;20024;-79
2022/03/23 07:28:07;;;;;;;37.13;28.70;;;;;;;10.85;100.00;103255.78;6197485;23;20030;-79
2022/03/23 07:30:39;;;;;;;38.28;28.60;;;;;;;11.20;100.00;103258.00;6251386;23;20028;-79
2022/03/23 07:33:09;;;;;;;39.97;26.70;;;;;;;11.44;100.00;103251.03;6253268;23;20225;-79
2022/03/23 07:35:39;;;;;;;40.65;29.05;;;;;;;11.61;100.00;103256.06;6236231;23;20020;-79
2022/03/23 07:38:08;;;;;;;32.40;25.48;;;;;;;11.76;100.00;103253.06;6196233;23;20026;-79
2022/03/23 07:40:36;;;;;;;42.97;25.58;;;;;;;11.92;100.00;103257.22;6212730;23;20030;-79
2022/03/23 07:43:05;;;;;;;39.33;26.85;;;;;;;12.12;100.00;103257.91;6256652;23;20592;-79
2022/03/23 07:45:35;;;;;;;41.15;27.35;;;;;;;12.28;100.00;103255.84;6222689;23;20022;-79
2022/03/23 07:48:05;;;;;;;46.80;25.88;;;;;;;12.42;100.00;103260.72;6225107;23;20020;-79
2022/03/23 07:50:34;;;;;;;36.75;25.20;;;;;;;12.50;100.00;103255.72;6188060;23;20026;-79
2022/03/23 07:53:03;;;;;;;36.03;26.35;;;;;;;12.62;100.00;103262.28;6177778;23;20050;-81
2022/03/23 07:55:34;;;;;;;41.72;26.35;;;;;;;12.79;100.00;103260.19;6221196;23;20027;-80
2022/03/23 07:58:02;;;;;;;46.45;26.27;;;;;;;12.98;100.00;103264.34;6241249;23;20512;-79
2022/03/23 08:00:32;;;;;;;35.00;24.27;;;;;;;13.20;100.00;103263.28;6196282;23;20027;-79
2022/03/23 08:03:01;;;;;;;36.10;25.33;;;;;;;13.51;100.00;103263.34;6221556;23;20030;-80
2022/03/23 08:05:31;;;;;;;29.60;23.80;;;;;;;13.79;100.00;103262.38;6259913;23;20943;-80
2022/03/23 08:08:00;;;;;;;36.75;25.55;;;;;;;14.05;100.00;103260.47;6246922;23;20227;-80
2022/03/23 08:10:29;;;;;;;33.70;24.00;;;;;;;14.30;99.99;103262.00;6206119;23;20020;-80
2022/03/23 08:12:58;;;;;;;32.78;24.98;;;;;;;14.59;98.33;103264.53;6218779;23;20030;-80
2022/03/23 08:15:29;;;;;;;34.05;25.80;;;;;;;14.78;96.94;103261.50;6249678;23;20022;-80
2022/03/23 08:17:58;;;;;;;31.45;24.65;;;;;;;14.96;94.70;103258.38;6242877;23;20031;-79
2022/03/23 08:20:32;;;;;;;33.83;24.58;;;;;;;15.14;92.04;103263.22;6255856;23;20020;-80
2022/03/23 08:23:03;;;;;;;34.58;24.98;;;;;;;15.33;91.87;103268.91;6229829;23;20016;-80
2022/03/23 08:25:33;;;;;;;32.13;23.25;;;;;;;15.42;87.38;103263.81;6252223;23;20016;-79
2022/03/23 08:28:06;;;;;;;31.80;21.83;;;;;;;15.54;86.39;103260.53;6227334;23;20028;-79
2022/03/23 08:30:38;;;;;;;35.13;21.63;;;;;;;15.71;85.42;103261.78;6219576;23;20483;-80
2022/03/23 08:33:07;;;;;;;25.65;19.63;;;;;;;15.80;81.30;103263.72;6213417;23;20047;-78
2022/03/23 08:35:39;;;;;;;28.67;20.33;;;;;;;15.94;80.00;103267.56;6204253;23;20019;-78
2022/03/23 08:38:07;;;;;;;26.08;18.75;;;;;;;16.07;77.50;103263.41;6227203;23;20231;-80
2022/03/23 08:40:37;;;;;;;26.98;20.13;;;;;;;16.13;75.54;103273.25;6234023;23;20026;-79
2022/03/23 08:43:07;;;;;;;25.55;17.65;;;;;;;16.17;71.93;103264.44;6248501;23;20192;-79
2022/03/23 08:45:37;;;;;;;22.35;18.80;;;;;;;16.16;70.04;103263.56;6202216;23;20032;-79
2022/03/23 08:48:09;;;;;;;21.13;18.02;;;;;;;16.17;69.00;103267.13;6250634;23;20024;-78
2022/03/23 08:50:40;;;;;;;21.33;19.08;;;;;;;16.17;67.46;103265.34;6215552;23;20024;-79
2022/03/23 08:53:08;;;;;;;20.70;17.55;;;;;;;16.12;66.75;103271.44;6229837;23;20223;-79
2022/03/23 08:55:37;;;;;;;23.65;19.10;;;;;;;16.14;65.35;103273.28;6262477;23;20016;-79
2022/03/23 08:58:07;;;;;;;28.20;19.73;;;;;;;16.17;64.93;103278.66;6232852;23;20012;-79
2022/03/23 09:00:36;;;;;;;24.63;18.95;;;;;;;16.20;63.13;103275.16;6248325;23;20003;-79
2022/03/23 09:03:05;;;;;;;24.27;19.48;;;;;;;16.14;61.61;103272.38;6196017;23;20008;-78
2022/03/23 09:05:34;;;;;;;31.85;20.92;;;;;;;16.12;61.17;103274.09;6198345;23;20466;-80
2022/03/23 09:08:03;;;;;;;25.88;21.08;;;;;;;16.08;60.13;103273.16;6228597;23;20012;-79
2022/03/23 09:10:34;;;;;;;24.40;19.20;;;;;;;16.01;58.91;103276.59;6210851;23;20020;-79
2022/03/23 09:13:03;;;;;;;20.02;17.75;;;;;;;15.94;56.64;103278.22;6196064;23;20026;-78
2022/03/23 09:15:32;;;;;;;25.83;18.50;;;;;;;15.91;57.42;103274.59;6206986;23;20441;-79
2022/03/23 09:18:01;;;;;;;23.35;17.92;;;;;;;15.91;56.74;103277.25;6259876;23;20016;-82
2022/03/23 09:20:31;;;;;;;27.65;17.50;;;;;;;15.88;55.08;103275.44;6253580;23;20631;-80
2022/03/23 09:23:00;;;;;;;21.77;17.17;;;;;;;15.84;55.40;103278.91;6239710;23;20020;-79
2022/03/23 09:25:28;;;;;;;26.80;16.40;;;;;;;15.79;55.34;103272.59;6211450;23;20030;-80
2022/03/23 09:27:57;;;;;;;21.90;17.67;;;;;;;15.76;55.01;103275.19;6232107;23;20016;-79
2022/03/23 09:30:25;;;;;;;24.63;17.02;;;;;;;15.71;55.28;103283.03;6185005;23;20431;-79
2022/03/23 09:32:54;;;;;;;27.83;18.10;;;;;;;15.71;56.02;103279.50;6175395;23;20027;-79
2022/03/23 09:35:23;;;;;;;22.90;16.88;;;;;;;15.67;55.37;103278.53;6193096;23;20360;-79
2022/03/23 09:37:52;;;;;;;19.85;17.33;;;;;;;15.58;55.65;103271.25;6223310;23;20020;-79
2022/03/23 09:40:24;;;;;;;28.80;18.40;;;;;;;15.51;56.35;103273.75;6234733;23;20016;-79
2022/03/23 09:43:02;;;;;;;26.25;18.67;;;;;;;15.46;56.73;103276.28;6258555;23;19996;-80
2022/03/23 09:48:09;;;;;;;34.75;20.15;;;;;;;15.50;61.08;103264.88;6215163;23;20012;-80
2022/03/23 09:50:40;;;;;;;25.73;19.77;;;;;;;15.53;61.94;103264.94;6222993;23;20046;-80
2022/03/23 09:53:09;;;;;;;26.50;20.05;;;;;;;15.50;63.75;103271.94;6234700;23;20016;-81
2022/03/23 09:55:42;;;;;;;26.50;20.67;;;;;;;15.46;64.88;103275.41;6256431;23;20034;-81
2022/03/23 09:58:12;;;;;;;28.67;22.05;;;;;;;15.40;64.64;103261.09;6231385;23;20012;-80
2022/03/23 10:00:44;;;;;;;31.13;21.95;;;;;;;15.34;64.68;103268.06;6236006;23;20020;-80
2022/03/23 10:03:12;;;;;;;27.65;20.73;;;;;;;15.29;65.74;103264.41;6192447;23;20020;-80
2022/03/23 10:06:24;;;;;;;28.70;21.40;;;;;;;15.32;67.49;103262.72;6261936;23;20008;-80
2022/03/23 10:09:30;;;;;;;29.67;20.35;;;;;;;15.33;65.88;103260.94;6229386;23;20022;-80
2022/03/23 10:12:43;;;;;;;26.27;19.27;;;;;;;15.30;66.24;103264.44;6265735;23;20008;-80
2022/03/23 10:15:49;;;;;;;24.50;20.08;;;;;;;15.35;62.95;103267.22;6189509;23;20031;-80
2022/03/23 10:18:21;;;;;;;24.75;17.85;;;;;;;15.35;63.74;103265.44;6252002;23;20019;-80
2022/03/23 10:20:49;;;;;;;24.63;18.73;;;;;;;15.39;64.58;103266.41;6261180;23;20030;-80
2022/03/23 10:23:22;;;;;;;21.48;15.82;;;;;;;15.42;60.54;103269.13;6197052;23;20020;-80
2022/03/23 10:25:51;;;;;;;23.90;18.70;;;;;;;15.48;62.62;103266.63;6264765;23;20022;-80
2022/03/23 10:28:20;;;;;;;26.48;17.75;;;;;;;15.57;63.53;103264.13;6262470;23;20369;-80
2022/03/23 10:30:48;;;;;;;33.08;16.95;;;;;;;15.63;59.29;103262.47;6195034;23;20020;-80
2022/03/23 10:33:22;;;;;;;19.65;15.25;;;;;;;15.68;58.99;103258.16;6247822;23;20485;-80
2022/03/23 10:35:51;;;;;;;23.73;16.30;;;;;;;15.74;58.80;103255.66;6199110;23;20020;-80
2022/03/23 10:38:22;;;;;;;22.98;15.38;;;;;;;15.77;56.81;103255.72;6197897;23;20016;-79
2022/03/23 10:40:52;;;;;;;25.50;18.38;;;;;;;15.83;59.27;103257.59;6234747;23;20016;-79
2022/03/23 10:43:33;;;;;;;24.40;17.08;;;;;;;15.87;58.26;103254.13;6233087;23;20031;-79
2022/03/23 10:46:13;;;;;;;27.92;19.48;;;;;;;15.91;59.46;103248.88;6254212;23;20012;-80
2022/03/23 10:49:01;;;;;;;24.92;19.50;;;;;;;15.96;59.04;103252.53;6224085;23;20014;-79
2022/03/23 10:51:32;;;;;;;24.30;16.73;;;;;;;15.98;57.40;103250.81;6256223;23;20022;-80
2022/03/23 10:54:13;;;;;;;24.10;17.45;;;;;;;15.97;56.48;103241.06;6197721;23;20457;-79
2022/03/23 10:56:42;;;;;;;26.75;17.55;;;;;;;16.01;57.72;103238.44;6260888;23;20015;-79
2022/03/23 10:59:22;;;;;;;23.10;17.38;;;;;;;16.06;55.99;103242.09;6224686;23;20024;-79
2022/03/23 11:02:01;;;;;;;24.33;19.08;;;;;;;16.09;55.91;103237.72;6249800;23;20024;-79
2022/03/23 11:04:44;;;;;;;25.48;17.88;;;;;;;16.07;54.64;103238.56;6224338;23;20024;-79
2022/03/23 11:07:30;;;;;;;22.80;17.67;;;;;;;16.06;55.80;103237.66;6252186;23;20027;-79
2022/03/23 11:15:47;;;;;;;26.45;18.70;;;;;;;16.20;55.91;103234.34;6229129;23;20512;-79
2022/03/23 11:18:17;;;;;;;24.80;18.30;;;;;;;16.23;56.61;103229.97;6203233;23;20028;-80
2022/03/23 11:20:53;;;;;;;26.38;18.40;;;;;;;16.28;56.26;103228.31;6213490;23;20035;-80
2022/03/23 11:23:27;;;;;;;25.40;19.13;;;;;;;16.35;56.16;103227.53;6171862;23;20139;-80
2022/03/23 11:26:05;;;;;;;22.67;18.73;;;;;;;16.43;56.19;103230.34;6140468;23;20020;-80
2022/03/23 11:28:36;;;;;;;28.35;18.73;;;;;;;16.50;55.13;103229.56;6192148;23;20235;-80
2022/03/23 11:31:07;;;;;;;23.13;17.80;;;;;;;16.55;54.89;103225.19;6226793;23;20016;-80
2022/03/23 11:33:37;;;;;;;25.13;19.25;;;;;;;16.60;53.89;103227.03;6186345;23;20028;-80
2022/03/23 11:36:11;;;;;;;26.10;18.27;;;;;;;16.60;53.38;103216.38;6200997;23;20035;-80
2022/03/23 11:38:43;;;;;;;20.73;17.05;;;;;;;16.60;53.18;103214.63;6228206;23;20469;-80
2022/03/23 11:41:14;;;;;;;19.75;16.67;;;;;;;16.60;52.91;103214.63;6232123;23;20059;-80
2022/03/23 11:43:43;;;;;;;22.90;17.15;;;;;;;16.63;52.74;103213.78;6196524;23;20024;-79